Time;durP1;ratioP1;P1;durP2;ratioP2;P2;SDS_P1;SDS_P2;PMS_P1;PMS_P2;Temp;Humidity;BMP_temperature;BMP_pressure;BME280_temperature;BME280_humidity;BME280_pressure;Samples;Min_cycle;Max_cycle;Signal;HPM_P1;HPM_P2
2023/08/18 00:00:45;;;;;;;;;;;;;;;25.75;100.00;98022.03;5119576;28;19931;-74
2023/08/18 00:03:12;;;;;;;;;;;;;;;25.86;100.00;98016.81;5122267;28;19928;-74
2023/08/18 00:05:38;;;;;;;;;;;;;;;25.86;100.00;98014.06;5123307;28;19924;-74
2023/08/18 00:08:06;;;;;;;;;;;;;;;26.02;100.00;98025.75;5121227;28;19951;-74
2023/08/18 00:10:32;;;;;;;;;;;;;;;26.02;100.00;98028.47;5119382;28;19924;-73
2023/08/18 00:12:59;;;;;;;;;;;;;;;26.04;100.00;98035.16;5120099;28;19920;-74
2023/08/18 00:15:25;;;;;;;;;;;;;;;25.88;100.00;98028.97;5114807;28;20434;-74
2023/08/18 00:17:52;;;;;;;;;;;;;;;26.03;100.00;98030.03;5115868;28;20485;-74
2023/08/18 00:20:18;;;;;;;;;;;;;;;25.92;100.00;98026.31;5114720;28;19930;-73
2023/08/18 00:22:45;;;;;;;;;;;;;;;26.00;100.00;98028.03;5104650;28;19974;-74
2023/08/18 00:25:12;;;;;;;;;;;;;;;25.95;100.00;98031.84;5119866;28;19923;-74
2023/08/18 00:27:39;;;;;;;;;;;;;;;25.86;100.00;98038.69;5118980;28;20702;-74
2023/08/18 00:30:07;;;;;;;;;;;;;;;26.00;100.00;98033.50;5120966;28;19987;-74
2023/08/18 00:32:34;;;;;;;;;;;;;;;26.06;100.00;98043.00;5121858;28;19938;-74
2023/08/18 00:35:00;;;;;;;;;;;;;;;26.01;100.00;98041.38;5121624;28;19927;-74
2023/08/18 00:37:27;;;;;;;;;;;;;;;25.86;100.00;98030.50;5119920;28;19935;-74
2023/08/18 00:39:53;;;;;;;;;;;;;;;25.75;100.00;98027.53;5119920;28;19928;-73
2023/08/18 00:42:21;;;;;;;;;;;;;;;25.75;100.00;98020.09;5123060;28;19945;-74
2023/08/18 00:44:47;;;;;;;;;;;;;;;25.86;100.00;98019.53;5122815;28;19920;-74
2023/08/18 00:47:14;;;;;;;;;;;;;;;25.52;100.00;98024.72;5106561;28;19924;-74
2023/08/18 00:49:41;;;;;;;;;;;;;;;25.40;100.00;98027.53;5122715;28;19931;-74
2023/08/18 00:52:07;;;;;;;;;;;;;;;25.58;100.00;98023.28;5120273;28;19934;-73
2023/08/18 00:54:34;;;;;;;;;;;;;;;25.60;100.00;98014.69;5118891;28;19924;-74
2023/08/18 00:57:00;;;;;;;;;;;;;;;25.70;100.00;98006.72;5120629;28;20129;-74
2023/08/18 00:59:29;;;;;;;;;;;;;;;25.80;100.00;98012.78;5126286;28;19924;-74
2023/08/18 01:02:02;;;;;;;;;;;;;;;25.77;100.00;98009.63;5125810;28;19924;-73
2023/08/18 01:04:28;;;;;;;;;;;;;;;25.71;100.00;98013.00;5122468;28;20015;-74
2023/08/18 01:06:55;;;;;;;;;;;;;;;25.68;100.00;98006.31;5122679;28;19924;-74
2023/08/18 01:09:21;;;;;;;;;;;;;;;25.53;100.00;98007.13;5107566;28;19935;-74
2023/08/18 01:11:52;;;;;;;;;;;;;;;25.63;100.00;98000.31;5125652;28;19924;-74
2023/08/18 01:14:25;;;;;;;;;;;;;;;25.77;100.00;98003.34;5114084;28;19927;-75
2023/08/18 01:16:57;;;;;;;;;;;;;;;25.79;100.00;98006.50;5106636;28;19927;-74
2023/08/18 01:19:24;;;;;;;;;;;;;;;25.84;100.00;98014.44;5114757;28;19924;-74
2023/08/18 01:21:53;;;;;;;;;;;;;;;25.49;100.00;98009.03;5122327;28;20025;-73
2023/08/18 01:24:20;;;;;;;;;;;;;;;25.24;100.00;98000.25;5113714;28;19924;-73
2023/08/18 01:26:47;;;;;;;;;;;;;;;25.41;100.00;98003.72;5122048;28;19946;-74
2023/08/18 01:29:13;;;;;;;;;;;;;;;25.54;100.00;98000.53;5124889;28;19991;-74
2023/08/18 01:31:40;;;;;;;;;;;;;;;25.59;100.00;97992.03;5125323;28;19927;-74
2023/08/18 01:34:08;;;;;;;;;;;;;;;25.65;100.00;98003.50;5123288;28;19986;-74
2023/08/18 01:36:37;;;;;;;;;;;;;;;25.69;100.00;98001.59;5121921;28;19924;-74
2023/08/18 01:39:05;;;;;;;;;;;;;;;25.33;100.00;98001.97;5123336;28;19924;-74
2023/08/18 01:41:33;;;;;;;;;;;;;;;25.14;100.00;98005.44;5125197;28;19931;-73
2023/08/18 01:44:00;;;;;;;;;;;;;;;25.27;100.00;98004.19;5123980;28;19924;-73
2023/08/18 01:46:26;;;;;;;;;;;;;;;25.39;100.00;98008.75;5105951;28;20272;-73
2023/08/18 01:48:52;;;;;;;;;;;;;;;25.51;100.00;98000.44;5121392;28;19924;-73
2023/08/18 01:51:19;;;;;;;;;;;;;;;25.61;100.00;98005.34;5125123;28;19966;-73
2023/08/18 01:53:45;;;;;;;;;;;;;;;25.62;100.00;97994.06;5107195;28;19935;-73
2023/08/18 01:56:12;;;;;;;;;;;;;;;25.24;100.00;97996.72;5122326;28;19994;-73
2023/08/18 01:58:39;;;;;;;;;;;;;;;24.57;100.00;97995.09;5121384;28;19924;-73
2023/08/18 02:01:06;;;;;;;;;;;;;;;24.23;100.00;97995.75;5122908;28;19946;-73
2023/08/18 02:03:33;;;;;;;;;;;;;;;23.61;100.00;97992.44;5124519;28;19924;-73
2023/08/18 02:06:00;;;;;;;;;;;;;;;23.57;100.00;97994.31;5123337;28;20006;-73
2023/08/18 02:08:26;;;;;;;;;;;;;;;23.62;100.00;97994.03;5120949;28;19924;-73
2023/08/18 02:10:53;;;;;;;;;;;;;;;24.09;100.00;97990.66;5121033;28;19952;-73
2023/08/18 02:13:19;;;;;;;;;;;;;;;24.06;100.00;97988.63;5124437;28;19994;-73
2023/08/18 02:15:47;;;;;;;;;;;;;;;23.90;100.00;97991.31;5110682;28;19975;-73
2023/08/18 02:18:13;;;;;;;;;;;;;;;23.67;100.00;97988.34;5120191;28;20388;-73
2023/08/18 02:20:39;;;;;;;;;;;;;;;24.31;100.00;97983.88;5120946;28;19924;-73
2023/08/18 02:23:06;;;;;;;;;;;;;;;24.76;100.00;97983.44;5122717;28;19951;-73
2023/08/18 02:25:32;;;;;;;;;;;;;;;24.94;100.00;97990.97;5124025;28;19924;-73
2023/08/18 02:27:59;;;;;;;;;;;;;;;25.10;100.00;97988.16;5123145;28;19927;-73
2023/08/18 02:30:25;;;;;;;;;;;;;;;25.09;100.00;97983.88;5120718;28;19924;-73
2023/08/18 02:32:53;;;;;;;;;;;;;;;25.23;100.00;97995.13;5120691;28;19935;-73
2023/08/18 02:35:19;;;;;;;;;;;;;;;25.33;100.00;98000.03;5112702;28;19931;-73
2023/08/18 02:37:45;;;;;;;;;;;;;;;25.30;100.00;97994.47;5120829;28;19924;-73
2023/08/18 02:40:12;;;;;;;;;;;;;;;25.29;100.00;97992.88;5123417;28;20410;-73
2023/08/18 02:42:38;;;;;;;;;;;;;;;25.28;100.00;97992.13;5125349;28;19966;-73
2023/08/18 02:45:05;;;;;;;;;;;;;;;25.23;100.00;97995.13;5122688;28;19945;-73
2023/08/18 02:47:32;;;;;;;;;;;;;;;25.19;100.00;98000.50;5113359;28;19927;-73
2023/08/18 02:50:00;;;;;;;;;;;;;;;24.93;100.00;98002.22;5126492;28;19927;-73
2023/08/18 02:52:27;;;;;;;;;;;;;;;24.47;100.00;98001.06;5124010;28;19925;-73
2023/08/18 02:54:53;;;;;;;;;;;;;;;24.42;100.00;98001.31;5122015;28;19924;-73
2023/08/18 02:57:20;;;;;;;;;;;;;;;24.59;100.00;97996.31;5124333;28;19930;-73
2023/08/18 02:59:46;;;;;;;;;;;;;;;24.83;100.00;97991.81;5124469;28;19920;-73
2023/08/18 03:02:12;;;;;;;;;;;;;;;24.91;100.00;97999.06;5121857;28;19960;-73
2023/08/18 03:04:39;;;;;;;;;;;;;;;24.62;100.00;98006.53;5120257;28;19931;-73
2023/08/18 03:07:06;;;;;;;;;;;;;;;24.73;100.00;98004.03;5122409;28;19971;-73
2023/08/18 03:09:33;;;;;;;;;;;;;;;24.84;100.00;97998.88;5123396;28;19923;-73
2023/08/18 03:11:59;;;;;;;;;;;;;;;24.84;100.00;98001.63;5122260;28;19930;-73
2023/08/18 03:14:26;;;;;;;;;;;;;;;24.97;100.00;98014.84;5120008;28;19924;-73
2023/08/18 03:16:52;;;;;;;;;;;;;;;24.82;100.00;98012.13;5104418;28;19952;-73
2023/08/18 03:19:19;;;;;;;;;;;;;;;24.87;100.00;98007.16;5123358;28;19923;-73
2023/08/18 03:21:45;;;;;;;;;;;;;;;24.81;100.00;98015.94;5123040;28;19927;-73
2023/08/18 03:24:14;;;;;;;;;;;;;;;24.67;100.00;98014.44;5120408;28;19927;-73
2023/08/18 03:26:40;;;;;;;;;;;;;;;24.18;100.00;98008.50;5119517;28;19932;-73
2023/08/18 03:29:06;;;;;;;;;;;;;;;24.15;100.00;98009.19;5121396;28;19924;-73
2023/08/18 03:31:33;;;;;;;;;;;;;;;24.22;100.00;98024.97;5123001;28;19919;-73
2023/08/18 03:33:59;;;;;;;;;;;;;;;24.29;100.00;98022.44;5121857;28;19947;-73
2023/08/18 03:36:25;;;;;;;;;;;;;;;24.36;100.00;98019.09;5119376;28;19924;-73
2023/08/18 03:38:52;;;;;;;;;;;;;;;24.48;100.00;98025.25;5119330;28;20030;-72
2023/08/18 03:41:19;;;;;;;;;;;;;;;24.45;100.00;98020.50;5111109;28;19927;-72
2023/08/18 03:43:46;;;;;;;;;;;;;;;23.95;100.00;98023.03;5101224;28;19924;-72
2023/08/18 03:46:23;;;;;;;;;;;;;;;23.92;100.00;98016.31;5111336;28;19939;-73
2023/08/18 03:48:49;;;;;;;;;;;;;;;23.94;100.00;98014.06;5119267;28;19979;-73
2023/08/18 03:51:15;;;;;;;;;;;;;;;23.92;100.00;98024.50;5122463;28;19924;-73
2023/08/18 03:53:42;;;;;;;;;;;;;;;24.03;100.00;98019.34;5122809;28;19967;-73
2023/08/18 03:56:09;;;;;;;;;;;;;;;23.60;100.00;98026.31;5120309;28;19934;-72
2023/08/18 03:58:37;;;;;;;;;;;;;;;23.29;100.00;98023.41;5119299;28;19924;-72
2023/08/18 04:01:04;;;;;;;;;;;;;;;23.06;100.00;98031.25;5120702;28;19973;-73
2023/08/18 04:03:31;;;;;;;;;;;;;;;22.79;100.00;98023.75;5122806;28;19938;-73
2023/08/18 04:05:57;;;;;;;;;;;;;;;22.43;100.00;98024.47;5121984;28;19923;-73
2023/08/18 04:08:24;;;;;;;;;;;;;;;22.00;100.00;98021.41;5119280;28;19934;-73
2023/08/18 04:10:50;;;;;;;;;;;;;;;23.04;100.00;98021.84;5119208;28;19924;-73
2023/08/18 04:13:16;;;;;;;;;;;;;;;22.79;100.00;98031.13;5123265;28;19942;-73
2023/08/18 04:15:45;;;;;;;;;;;;;;;23.62;100.00;98034.16;5109887;28;19958;-73
2023/08/18 04:18:11;;;;;;;;;;;;;;;23.88;100.00;98031.00;5118166;28;19923;-74
2023/08/18 04:20:38;;;;;;;;;;;;;;;23.98;100.00;98022.34;5119146;28;19928;-73
2023/08/18 04:23:04;;;;;;;;;;;;;;;24.12;100.00;98028.19;5120832;28;19924;-73
2023/08/18 04:25:31;;;;;;;;;;;;;;;24.00;100.00;98020.84;5122529;28;20034;-73
2023/08/18 04:27:57;;;;;;;;;;;;;;;23.71;100.00;98023.88;5121785;28;19924;-73
2023/08/18 04:30:24;;;;;;;;;;;;;;;23.26;100.00;98031.47;5119223;28;19924;-73
2023/08/18 04:32:51;;;;;;;;;;;;;;;23.31;100.00;98039.38;5121029;28;19957;-73
2023/08/18 04:35:18;;;;;;;;;;;;;;;23.67;100.00;98030.41;5114665;28;19924;-73
2023/08/18 04:37:44;;;;;;;;;;;;;;;23.41;100.00;98025.34;5122971;28;19959;-73
2023/08/18 04:40:11;;;;;;;;;;;;;;;23.16;100.00;98035.44;5125348;28;19924;-73
2023/08/18 04:42:38;;;;;;;;;;;;;;;23.60;100.00;98029.06;5126929;28;19924;-73
2023/08/18 04:45:05;;;;;;;;;;;;;;;23.76;100.00;98022.88;5123186;28;19923;-73
2023/08/18 04:47:31;;;;;;;;;;;;;;;23.12;100.00;98023.63;5095211;28;19958;-73
2023/08/18 04:49:59;;;;;;;;;;;;;;;22.74;100.00;98023.19;5125834;28;19931;-73
2023/08/18 04:52:25;;;;;;;;;;;;;;;22.83;100.00;98026.59;5123251;28;19931;-73
2023/08/18 04:54:52;;;;;;;;;;;;;;;22.92;100.00;98024.56;5123326;28;19962;-73
2023/08/18 04:57:19;;;;;;;;;;;;;;;22.55;100.00;98020.97;5115125;28;19924;-73
2023/08/18 04:59:45;;;;;;;;;;;;;;;21.96;100.00;98018.56;5123355;28;19928;-73
2023/08/18 05:02:11;;;;;;;;;;;;;;;22.19;100.00;98016.22;5125815;28;19924;-73
2023/08/18 05:04:38;;;;;;;;;;;;;;;22.22;100.00;98018.28;5126388;28;19919;-73
2023/08/18 05:07:06;;;;;;;;;;;;;;;22.23;100.00;98021.81;5124491;28;19924;-73
2023/08/18 05:09:33;;;;;;;;;;;;;;;22.22;100.00;98021.00;5122398;28;19974;-73
2023/08/18 05:12:01;;;;;;;;;;;;;;;22.71;100.00;98026.59;5105177;28;19920;-73
2023/08/18 05:14:28;;;;;;;;;;;;;;;22.60;100.00;98028.91;5127582;28;19954;-73
2023/08/18 05:16:54;;;;;;;;;;;;;;;22.66;100.00;98033.03;5111293;28;19927;-73
2023/08/18 05:19:20;;;;;;;;;;;;;;;22.50;100.00;98029.34;5126145;28;19937;-73
2023/08/18 05:21:47;;;;;;;;;;;;;;;22.62;100.00;98032.13;5125660;28;19930;-73
2023/08/18 05:24:15;;;;;;;;;;;;;;;22.76;100.00;98034.53;5122481;28;19951;-73
2023/08/18 05:26:41;;;;;;;;;;;;;;;22.26;100.00;98027.38;5121917;28;19924;-73
2023/08/18 05:29:07;;;;;;;;;;;;;;;22.21;100.00;98033.03;5123722;28;19992;-73
2023/08/18 05:31:35;;;;;;;;;;;;;;;22.59;100.00;98035.50;5125142;28;19927;-73
2023/08/18 05:34:01;;;;;;;;;;;;;;;22.70;100.00;98038.59;5123795;28;19919;-73
2023/08/18 05:36:28;;;;;;;;;;;;;;;23.06;100.00;98041.34;5121536;28;19937;-73
2023/08/18 05:38:54;;;;;;;;;;;;;;;22.78;100.00;98035.78;5121545;28;19932;-73
2023/08/18 05:41:22;;;;;;;;;;;;;;;22.72;100.00;98031.69;5125132;28;19924;-73
2023/08/18 05:43:48;;;;;;;;;;;;;;;22.92;100.00;98030.81;5124772;28;19923;-73
2023/08/18 05:46:15;;;;;;;;;;;;;;;23.06;100.00;98041.34;5105789;28;19920;-73
2023/08/18 05:48:41;;;;;;;;;;;;;;;22.85;100.00;98037.94;5121345;28;19924;-74
2023/08/18 05:51:07;;;;;;;;;;;;;;;23.22;100.00;98033.28;5123230;28;19964;-73
2023/08/18 05:53:34;;;;;;;;;;;;;;;23.05;100.00;98034.31;5124864;28;19941;-73
2023/08/18 05:56:01;;;;;;;;;;;;;;;23.02;100.00;98035.81;5105617;28;19924;-74
2023/08/18 05:58:29;;;;;;;;;;;;;;;23.35;100.00;98035.66;5121269;28;19981;-73
2023/08/18 06:00:55;;;;;;;;;;;;;;;23.28;100.00;98042.81;5121716;28;19931;-73
2023/08/18 06:03:21;;;;;;;;;;;;;;;23.46;100.00;98044.16;5124795;28;19924;-73
2023/08/18 06:05:48;;;;;;;;;;;;;;;23.38;100.00;98048.59;5125044;28;19959;-74
2023/08/18 06:08:14;;;;;;;;;;;;;;;22.98;100.00;98045.78;5121543;28;19923;-74
2023/08/18 06:10:40;;;;;;;;;;;;;;;22.75;100.00;98041.91;5103059;28;19924;-74
2023/08/18 06:13:06;;;;;;;;;;;;;;;23.14;100.00;98043.16;5123130;28;19924;-74
2023/08/18 06:15:34;;;;;;;;;;;;;;;23.65;100.00;98039.72;5114205;28;19990;-73
2023/08/18 06:18:01;;;;;;;;;;;;;;;23.98;100.00;98034.03;5118603;28;19923;-74
2023/08/18 06:20:27;;;;;;;;;;;;;;;24.11;100.00;98026.59;5121071;28;19924;-74
2023/08/18 06:22:53;;;;;;;;;;;;;;;24.05;100.00;98038.88;5120980;28;19924;-74
2023/08/18 06:25:20;;;;;;;;;;;;;;;24.23;100.00;98042.94;5124281;28;19926;-74
2023/08/18 06:27:46;;;;;;;;;;;;;;;23.64;100.00;98042.78;5124356;28;19920;-74
2023/08/18 06:30:13;;;;;;;;;;;;;;;23.65;100.00;98042.44;5121475;28;20532;-74
2023/08/18 06:32:41;;;;;;;;;;;;;;;23.91;100.00;98033.84;5122868;28;19935;-74
2023/08/18 06:35:07;;;;;;;;;;;;;;;24.03;100.00;98038.44;5124620;28;19966;-74
2023/08/18 06:37:34;;;;;;;;;;;;;;;23.97;100.00;98046.09;5125749;28;19924;-74
2023/08/18 06:40:00;;;;;;;;;;;;;;;23.99;100.00;98049.25;5124094;28;19931;-74
2023/08/18 06:42:26;;;;;;;;;;;;;;;23.97;100.00;98050.75;5121274;28;19943;-74
2023/08/18 06:44:53;;;;;;;;;;;;;;;24.04;100.00;98040.84;5120680;28;20550;-74
2023/08/18 06:47:19;;;;;;;;;;;;;;;24.13;100.00;98046.97;5109303;28;19923;-74
2023/08/18 06:49:47;;;;;;;;;;;;;;;24.35;100.00;98042.09;5124721;28;19955;-74
2023/08/18 06:52:14;;;;;;;;;;;;;;;23.94;100.00;98046.78;5121458;28;19924;-74
2023/08/18 06:54:41;;;;;;;;;;;;;;;23.90;100.00;98050.53;5120245;28;19924;-74
2023/08/18 06:57:07;;;;;;;;;;;;;;;23.92;100.00;98051.00;5122704;28;19924;-74
2023/08/18 06:59:33;;;;;;;;;;;;;;;24.36;100.00;98049.91;5106135;28;19928;-74
2023/08/18 07:02:00;;;;;;;;;;;;;;;24.50;100.00;98044.84;5123620;28;19920;-74
2023/08/18 07:04:26;;;;;;;;;;;;;;;24.70;100.00;98051.97;5122198;28;19931;-74
2023/08/18 07:06:54;;;;;;;;;;;;;;;24.69;100.00;98053.16;5121226;28;19928;-74
2023/08/18 07:09:20;;;;;;;;;;;;;;;24.99;100.00;98050.78;5112008;28;19920;-74
2023/08/18 07:11:47;;;;;;;;;;;;;;;25.14;100.00;98049.19;5119867;28;19924;-74
2023/08/18 07:14:13;;;;;;;;;;;;;;;25.20;100.00;98050.50;5122534;28;19931;-74
2023/08/18 07:16:39;;;;;;;;;;;;;;;24.89;100.00;98050.50;5108818;28;19930;-74
2023/08/18 07:19:06;;;;;;;;;;;;;;;24.60;100.00;98049.75;5121587;28;19960;-74
2023/08/18 07:21:32;;;;;;;;;;;;;;;24.16;100.00;98048.19;5123279;28;20426;-74
2023/08/18 07:24:00;;;;;;;;;;;;;;;23.92;100.00;98051.78;5122282;28;19924;-74
2023/08/18 07:26:27;;;;;;;;;;;;;;;24.02;100.00;98043.09;5119831;28;19988;-74
2023/08/18 07:28:53;;;;;;;;;;;;;;;24.79;100.00;98048.31;5119891;28;19928;-74
2023/08/18 07:31:20;;;;;;;;;;;;;;;24.62;100.00;98050.22;5123282;28;19946;-75
2023/08/18 07:33:46;;;;;;;;;;;;;;;24.67;100.00;98062.81;5123380;28;19924;-73
2023/08/18 07:36:13;;;;;;;;;;;;;;;24.90;100.00;98052.91;5120467;28;20864;-73
2023/08/18 07:38:39;;;;;;;;;;;;;;;25.07;100.00;98049.81;5119605;28;19928;-73
2023/08/18 07:41:07;;;;;;;;;;;;;;;25.11;100.00;98064.34;5121089;28;19946;-73
2023/08/18 07:43:33;;;;;;;;;;;;;;;24.53;100.00;98060.53;5122772;28;20024;-73
2023/08/18 07:45:59;;;;;;;;;;;;;;;23.93;100.00;98058.03;5105751;28;19943;-73
2023/08/18 07:48:26;;;;;;;;;;;;;;;23.83;100.00;98066.72;5119051;28;19924;-73
2023/08/18 07:50:53;;;;;;;;;;;;;;;23.99;100.00;98067.56;5118882;28;19924;-73
2023/08/18 07:53:19;;;;;;;;;;;;;;;23.65;100.00;98060.72;5110903;28;19992;-73
2023/08/18 07:55:46;;;;;;;;;;;;;;;23.87;100.00;98062.94;5119216;28;19924;-73
2023/08/18 07:58:14;;;;;;;;;;;;;;;23.89;100.00;98065.34;5121902;28;19989;-73
2023/08/18 08:00:40;;;;;;;;;;;;;;;23.96;100.00;98068.25;5122573;28;20522;-73
2023/08/18 08:03:07;;;;;;;;;;;;;;;24.01;100.00;98062.56;5120647;28;19943;-74
2023/08/18 08:05:33;;;;;;;;;;;;;;;23.80;100.00;98064.69;5119136;28;19958;-74
2023/08/18 08:08:00;;;;;;;;;;;;;;;23.97;100.00;98058.94;5124126;28;19979;-73
2023/08/18 08:10:26;;;;;;;;;;;;;;;24.33;100.00;98061.53;5126781;28;19924;-73
2023/08/18 08:12:52;;;;;;;;;;;;;;;24.73;100.00;98048.53;5126950;28;19924;-73
2023/08/18 08:15:20;;;;;;;;;;;;;;;24.52;100.00;98055.41;5111595;28;19924;-73
2023/08/18 08:17:47;;;;;;;;;;;;;;;24.28;100.00;98053.59;5118017;28;19924;-73
2023/08/18 08:20:15;;;;;;;;;;;;;;;24.34;100.00;98054.13;5123911;28;19959;-73
2023/08/18 08:22:42;;;;;;;;;;;;;;;24.35;100.00;98053.00;5123274;28;19946;-73
2023/08/18 08:25:09;;;;;;;;;;;;;;;24.25;100.00;98056.22;5125260;28;19992;-73
2023/08/18 08:27:36;;;;;;;;;;;;;;;24.03;100.00;98065.72;5126883;28;19924;-73
2023/08/18 08:30:02;;;;;;;;;;;;;;;24.02;100.00;98064.94;5125097;28;19924;-73
2023/08/18 08:32:30;;;;;;;;;;;;;;;24.30;100.00;98056.75;5122921;28;20014;-73
2023/08/18 08:34:56;;;;;;;;;;;;;;;24.57;100.00;98066.84;5124999;28;19912;-75
2023/08/18 08:37:23;;;;;;;;;;;;;;;25.01;100.00;98064.09;5128150;28;19947;-74
2023/08/18 08:39:49;;;;;;;;;;;;;;;24.94;100.00;98058.47;5126764;28;19923;-74
2023/08/18 08:42:16;;;;;;;;;;;;;;;24.91;100.00;98059.16;5123073;28;19924;-74
2023/08/18 08:44:42;;;;;;;;;;;;;;;24.64;100.00;98056.13;5122688;28;19932;-74
2023/08/18 08:47:09;;;;;;;;;;;;;;;24.63;100.00;98068.19;5108893;28;19924;-74
2023/08/18 08:49:35;;;;;;;;;;;;;;;;;;5126148;28;19927;-75
2023/08/18 08:52:06;;;;;;;;;;;;;;;24.55;100.00;98062.88;5125179;28;19945;-73
2023/08/18 08:54:34;;;;;;;;;;;;;;;24.61;100.00;98067.75;5122554;28;19928;-73
2023/08/18 08:57:02;;;;;;;;;;;;;;;24.81;100.00;98057.75;5123602;28;19931;-74
2023/08/18 08:59:29;;;;;;;;;;;;;;;24.95;100.00;98065.50;5126002;28;19945;-74
2023/08/18 09:01:55;;;;;;;;;;;;;;;24.73;100.00;98064.94;5125895;28;19935;-73
2023/08/18 09:04:22;;;;;;;;;;;;;;;24.81;100.00;98057.75;5122464;28;19924;-73
2023/08/18 09:06:49;;;;;;;;;;;;;;;24.68;100.00;98057.00;5122488;28;19946;-73
2023/08/18 09:09:18;;;;;;;;;;;;;;;24.65;100.00;98060.44;5125904;28;19953;-73
2023/08/18 09:11:45;;;;;;;;;;;;;;;24.84;100.00;98058.97;5126158;28;19979;-74
2023/08/18 09:14:12;;;;;;;;;;;;;;;25.25;100.00;98066.63;5123509;28;19923;-73
2023/08/18 09:16:38;;;;;;;;;;;;;;;25.45;100.00;98062.00;5088767;28;19920;-74
2023/08/18 09:19:05;;;;;;;;;;;;;;;25.37;100.00;98066.53;5123788;28;19974;-73
2023/08/18 09:21:32;;;;;;;;;;;;;;;25.66;100.00;98057.03;5126164;28;19935;-73
2023/08/18 09:23:59;;;;;;;;;;;;;;;25.47;100.00;98055.03;5125489;28;19962;-73
2023/08/18 09:26:27;;;;;;;;;;;;;;;25.45;100.00;98056.53;5122806;28;20399;-73
2023/08/18 09:28:54;;;;;;;;;;;;;;;25.20;100.00;98056.75;5122942;28;19924;-73
2023/08/18 09:31:20;;;;;;;;;;;;;;;25.18;100.00;98061.78;5126041;28;19962;-73
2023/08/18 09:33:47;;;;;;;;;;;;;;;25.04;100.00;98044.25;5125961;28;19924;-73
2023/08/18 09:36:14;;;;;;;;;;;;;;;25.19;100.00;98062.59;5122731;28;19932;-73
2023/08/18 09:38:41;;;;;;;;;;;;;;;25.36;100.00;98045.78;5121967;28;19921;-73
2023/08/18 09:41:07;;;;;;;;;;;;;;;25.38;100.00;98046.22;5123588;28;19924;-73
2023/08/18 09:43:35;;;;;;;;;;;;;;;25.29;100.00;98053.81;5107083;28;20371;-73
2023/08/18 09:46:04;;;;;;;;;;;;;;;25.41;100.00;98045.50;5107819;28;19946;-74
2023/08/18 09:48:34;;;;;;;;;;;;;;;25.43;100.00;98048.69;5121294;28;19924;-73
2023/08/18 09:51:01;;;;;;;;;;;;;;;25.28;100.00;98046.78;5122424;28;19924;-74
2023/08/18 09:53:28;;;;;;;;;;;;;;;25.44;100.00;98041.28;5125036;28;19924;-74
2023/08/18 09:55:57;;;;;;;;;;;;;;;25.71;100.00;98032.94;5124865;28;20045;-74
2023/08/18 09:58:28;;;;;;;;;;;;;;;25.84;100.00;98035.53;5121475;28;19924;-74
2023/08/18 10:00:56;;;;;;;;;;;;;;;25.95;100.00;98034.59;5121399;28;19948;-75
2023/08/18 10:03:25;;;;;;;;;;;;;;;26.10;100.00;98036.47;5125000;28;19924;-74
2023/08/18 10:05:51;;;;;;;;;;;;;;;26.19;100.00;98041.72;5106900;28;19998;-74
2023/08/18 10:08:18;;;;;;;;;;;;;;;26.04;100.00;98034.38;5124766;28;19950;-75
2023/08/18 10:10:46;;;;;;;;;;;;;;;26.25;100.00;98030.13;5125319;28;19955;-74
2023/08/18 10:13:14;;;;;;;;;;;;;;;26.27;100.00;98021.56;5125142;28;19924;-75
2023/08/18 10:15:40;;;;;;;;;;;;;;;26.45;100.00;98022.69;5112982;28;19950;-75
2023/08/18 10:18:11;;;;;;;;;;;;;;;26.57;100.00;98021.72;5119916;28;19931;-75
2023/08/18 10:20:47;;;;;;;;;;;;;;;26.50;100.00;98025.09;5124710;28;19938;-72
2023/08/18 10:23:13;;;;;;;;;;;;;;;26.46;100.00;98024.25;5129926;28;19927;-73
2023/08/18 10:25:40;;;;;;;;;;;;;;;26.55;100.00;98021.28;5130042;28;19916;-74
2023/08/18 10:28:07;;;;;;;;;;;;;;;26.34;100.00;98018.94;5127874;28;19950;-75
2023/08/18 10:30:33;;;;;;;;;;;;;;;26.39;100.00;98024.13;5125653;28;19955;-74
2023/08/18 10:33:03;;;;;;;;;;;;;;;26.59;100.00;98020.19;5123965;28;19924;-74
2023/08/18 10:35:31;;;;;;;;;;;;;;;26.55;100.00;98027.56;5126484;28;19961;-74
2023/08/18 10:37:59;;;;;;;;;;;;;;;26.56;100.00;98018.19;5128428;28;19969;-77
2023/08/18 10:40:26;;;;;;;;;;;;;;;26.42;100.00;98033.56;5124427;28;19963;-77
2023/08/18 10:42:53;;;;;;;;;;;;;;;26.47;100.00;98025.03;5121446;28;19991;-75
2023/08/18 10:45:24;;;;;;;;;;;;;;;26.55;100.00;98026.78;5109144;28;20388;-74
2023/08/18 10:47:50;;;;;;;;;;;;;;;26.76;100.00;98033.41;5116068;28;20396;-74
2023/08/18 10:50:18;;;;;;;;;;;;;;;26.97;100.00;98021.22;5120631;28;19988;-74
2023/08/18 10:52:46;;;;;;;;;;;;;;;27.02;100.00;98024.44;5120603;28;19924;-74
2023/08/18 10:55:12;;;;;;;;;;;;;;;27.21;100.00;98016.13;5123086;28;19928;-74
2023/08/18 10:57:38;;;;;;;;;;;;;;;27.38;100.00;98017.56;5123754;28;19924;-74
2023/08/18 11:00:10;;;;;;;;;;;;;;;27.49;100.00;98009.50;5122160;28;19919;-74
2023/08/18 11:02:37;;;;;;;;;;;;;;;27.55;100.00;98014.28;5120323;28;20427;-74
2023/08/18 11:05:04;;;;;;;;;;;;;;;27.78;100.00;98005.97;5121753;28;19962;-75
2023/08/18 11:07:30;;;;;;;;;;;;;;;28.07;94.07;98013.38;5123768;28;19991;-74
2023/08/18 11:09:58;;;;;;;;;;;;;;;27.79;92.82;97999.31;5123189;28;19928;-74
2023/08/18 11:12:25;;;;;;;;;;;;;;;28.11;99.16;97999.69;5120390;28;19950;-75
2023/08/18 11:14:51;;;;;;;;;;;;;;;27.93;90.72;98001.44;5120177;28;19934;-75
2023/08/18 11:17:18;;;;;;;;;;;;;;;27.73;92.60;97998.06;5107598;28;19924;-74
2023/08/18 11:19:44;;;;;;;;;;;;;;;27.77;93.88;97993.41;5123427;28;19924;-74
2023/08/18 11:22:11;;;;;;;;;;;;;;;28.21;95.61;97996.28;5121553;28;19977;-74
2023/08/18 11:24:38;;;;;;;;;;;;;;;27.83;93.05;97989.16;5102075;28;19971;-74
2023/08/18 11:27:06;;;;;;;;;;;;;;;27.62;92.38;97986.94;5121104;28;19920;-74
2023/08/18 11:29:32;;;;;;;;;;;;;;;27.66;95.78;97987.00;5123620;28;20598;-74
2023/08/18 11:31:59;;;;;;;;;;;;;;;27.79;98.29;97983.63;5122525;28;20514;-75
2023/08/18 11:34:25;;;;;;;;;;;;;;;27.97;94.10;97975.63;5119650;28;19924;-74
2023/08/18 11:36:59;;;;;;;;;;;;;;;27.95;92.82;97985.38;5101411;28;19924;-74
2023/08/18 11:39:25;;;;;;;;;;;;;;;27.69;94.68;97978.81;5112488;28;19946;-75
2023/08/18 11:41:52;;;;;;;;;;;;;;;27.67;96.86;97981.13;5120472;28;19924;-74
2023/08/18 11:44:20;;;;;;;;;;;;;;;27.88;98.43;97977.88;5110133;28;20008;-73
2023/08/18 11:46:47;;;;;;;;;;;;;;;28.36;98.01;97967.78;5104671;28;19931;-73
2023/08/18 11:49:13;;;;;;;;;;;;;;;28.77;95.86;97972.13;5124424;28;19955;-74
2023/08/18 11:51:54;;;;;;;;;;;;;;;29.00;94.86;97965.63;5124072;28;23520;-74
2023/08/18 11:54:20;;;;;;;;;;;;;;;29.10;93.93;97962.13;5112418;28;19924;-73
2023/08/18 11:56:47;;;;;;;;;;;;;;;29.28;93.54;97971.28;5120889;28;19928;-73
2023/08/18 11:59:19;;;;;;;;;;;;;;;29.39;90.62;97959.19;5123400;28;19927;-73
2023/08/18 12:01:46;;;;;;;;;;;;;;;29.17;88.12;97953.91;5123794;28;19923;-73
2023/08/18 12:04:12;;;;;;;;;;;;;;;29.27;91.35;97964.22;5120068;28;19924;-73
2023/08/18 12:06:39;;;;;;;;;;;;;;;29.40;93.07;97960.00;5119100;28;19999;-73
2023/08/18 12:09:07;;;;;;;;;;;;;;;29.44;90.93;97961.56;5120529;28;19931;-77
2023/08/18 12:11:34;;;;;;;;;;;;;;;29.51;91.48;97955.31;5122801;28;19987;-74
2023/08/18 12:14:03;;;;;;;;;;;;;;;29.39;91.51;97955.66;5121443;28;19924;-74
2023/08/18 12:16:32;;;;;;;;;;;;;;;29.59;90.61;97956.13;5103259;28;19959;-74
2023/08/18 12:18:59;;;;;;;;;;;;;;;29.57;89.24;97950.22;5119863;28;19928;-74
2023/08/18 12:21:25;;;;;;;;;;;;;;;29.44;87.45;97958.03;5122959;28;19930;-73
2023/08/18 12:23:52;;;;;;;;;;;;;;;29.44;88.07;97949.78;5122588;28;19946;-74
2023/08/18 12:26:18;;;;;;;;;;;;;;;29.52;88.50;97950.59;5119410;28;19924;-73
2023/08/18 12:28:44;;;;;;;;;;;;;;;29.62;87.32;97958.91;5101117;28;19924;-73
2023/08/18 12:31:11;;;;;;;;;;;;;;;29.60;80.69;97950.25;5121584;28;19924;-73
2023/08/18 12:33:39;;;;;;;;;;;;;;;29.52;78.82;97943.16;5122691;28;20592;-73
2023/08/18 12:36:05;;;;;;;;;;;;;;;29.50;83.52;97953.72;5121140;28;19970;-74